Airfield :
LOGIN :

Register | Disclaimer

   EN    FR    IT 

 










Legend :    VFR   Marginal VFR   IFR   Intensive IFR   Very Intensive IFR
Visi :
Ceiling :
>= 8 km
>= 3000ft
5 to 8 km
1000 to 3000 ft
1500m to 5 km
500 to 1000 ft
800 to 1500m
200 to 500 ft
< 800m
< 200 ft
Symbols :   Thunderstorms  Fog  Heavy snow  Heavy precipitations  Wind > 20 kt
SIGMETs :     Misc.  Thunderstorms  Icing  Turbulence  Mountain Waves  Volcanic Ashes






- Airport Elevation : 16 ft
- IATA code : EAS


LESO - San Sebastian Fuenterrabia

CURRENT METAR :
  • 132200Z AUTO 21003KT 160V260 9999 NCD 18/16 Q1009

EXPIRED METARs :
  • 132130Z AUTO 25003KT 190V330 9999 NCD 19/16 Q1010
  • 132100Z AUTO VRB02KT 9999 NCD 19/16 Q1010
  • 132030Z AUTO 20003KT 160V270 9999 NCD 20/17 Q1010
  • 132000Z AUTO 23005KT 200V270 9999 NCD 21/17 Q1010
  • 131930Z 25005KT 210V300 CAVOK 22/17 Q1010
  • 131900Z 27004KT 200V320 CAVOK 22/17 Q1010

TAF TAF LESO
Valid from the 13 at 18:00 until the 14 at 18:00 UTC


131700Z 1318/1418 23008KT 9999 SCT050 TX26/1318Z TN12/1406Z
PROB40
TEMPO 1404/1415 21015G27KT
BECMG 1412/1416 29015KT
TEMPO 1412/1418 RA SHRA SCT030TCU
PROB30
TEMPO 1414/1418 TS SCT030CB



MET'MAP, your aeronautical weather chart ! - Copyright ORBIFLY December 2007 - Disclaimer

ORBIFLY MET'MAP TEAM :

Programming & Development : Alexandra Zaïnal
Concept & Development : Baudouin d'Aumeries
Co-Development & Prog : Marc-Olivier Méhu
Technical & hardware support : Manuel Goepfert

Contact : metmap@orbifly.com




SOURCES & CREDITS :

   NOAA